createdAt,value
2022-11-12T00:04:01.207Z,84.54
2022-11-12T00:14:23.592Z,85.47
2022-11-12T00:24:46.076Z,85.46
2022-11-12T00:35:13.461Z,85.48
2022-11-12T00:45:36.828Z,85.68
2022-11-12T00:56:06.966Z,84.90
2022-11-12T01:06:29.561Z,84.92
2022-11-12T01:16:52.588Z,84.72
2022-11-12T01:27:15.583Z,84.90
2022-11-12T01:37:38.183Z,85.02
2022-11-12T01:48:02.825Z,85.43
2022-11-12T01:58:30.132Z,85.78
2022-11-12T02:08:52.530Z,86.35
2022-11-12T02:19:17.269Z,85.85
2022-11-12T02:29:46.765Z,85.60
2022-11-12T02:40:10.235Z,85.32
2022-11-12T02:50:33.042Z,85.81
2022-11-12T03:00:56.704Z,85.57
2022-11-12T03:11:18.857Z,85.46
2022-11-12T03:21:41.443Z,85.01
2022-11-12T03:32:04.046Z,85.01
2022-11-12T03:42:26.423Z,85.09
2022-11-12T03:52:52.027Z,85.59
2022-11-12T04:03:15.005Z,86.01
2022-11-12T04:13:38.836Z,85.36
2022-11-12T04:24:01.219Z,84.87
2022-11-12T04:34:29.676Z,84.98
2022-11-12T04:44:58.493Z,85.14
2022-11-12T04:55:20.784Z,84.78
2022-11-12T05:05:43.474Z,84.84
2022-11-12T05:16:07.361Z,85.09
2022-11-12T05:26:30.786Z,86.10
2022-11-12T05:36:53.317Z,86.42
2022-11-12T05:47:17.013Z,86.50
2022-11-12T05:57:39.838Z,86.26
2022-11-12T06:08:06.018Z,86.20
2022-11-12T06:18:29.170Z,86.75
2022-11-12T06:28:53.025Z,86.32
2022-11-12T06:39:15.747Z,86.30
2022-11-12T06:49:38.562Z,86.44
2022-11-12T07:00:01.260Z,87.14
2022-11-12T07:10:23.588Z,87.21
2022-11-12T07:20:46.334Z,87.66
2022-11-12T07:31:12.490Z,87.87
2022-11-12T07:41:35.213Z,87.07
2022-11-12T07:51:58.735Z,86.90
2022-11-12T08:02:21.321Z,87.43
2022-11-12T08:12:44.261Z,87.80
2022-11-12T08:23:07.141Z,88.80
2022-11-12T08:33:30.882Z,88.97
2022-11-12T08:43:53.930Z,88.86
2022-11-12T08:54:16.154Z,89.31
2022-11-12T09:04:39.067Z,88.98
2022-11-12T09:15:30.842Z,88.82
2022-11-12T09:25:45.228Z,88.43
2022-11-12T09:36:09.005Z,88.41
2022-11-12T09:46:41.798Z,88.76
2022-11-12T09:57:06.637Z,88.64
2022-11-12T10:07:37.420Z,88.67
2022-11-12T10:18:19.326Z,87.93
2022-11-12T10:29:00.987Z,86.42
2022-11-12T10:39:46.501Z,85.24
2022-11-12T10:50:08.796Z,83.83
2022-11-12T11:00:31.842Z,82.30
2022-11-12T11:11:21.689Z,80.92
2022-11-12T11:21:58.838Z,79.66
2022-11-12T11:32:37.018Z,78.37
2022-11-12T11:43:22.211Z,77.60
2022-11-12T11:54:14.189Z,76.45
2022-11-12T12:04:50.590Z,75.22
2022-11-12T12:15:38.016Z,74.19
2022-11-12T12:26:03.502Z,72.88
2022-11-12T12:36:35.015Z,72.98
2022-11-12T12:47:01.668Z,71.93
2022-11-12T12:57:41.391Z,71.39
2022-11-12T13:08:12.416Z,71.66
2022-11-12T13:18:41.144Z,71.76
2022-11-12T13:29:25.199Z,71.85
2022-11-12T13:39:48.049Z,72.23
2022-11-12T13:50:17.068Z,72.67
2022-11-12T14:00:40.677Z,72.98
2022-11-12T14:11:08.991Z,73.10
2022-11-12T14:21:31.995Z,73.46
2022-11-12T14:32:04.163Z,74.09
2022-11-12T14:42:27.054Z,74.50
2022-11-12T14:52:56.584Z,74.99
2022-11-12T15:03:25.248Z,75.58
2022-11-12T15:13:49.624Z,76.18
2022-11-12T15:24:11.833Z,76.23
2022-11-12T15:34:39.861Z,76.91
2022-11-12T15:45:04.635Z,77.61
2022-11-12T15:55:27.308Z,77.74
2022-11-12T16:05:50.307Z,78.32
2022-11-12T16:16:12.950Z,78.91
2022-11-12T16:26:36.354Z,79.91
2022-11-12T16:36:59.836Z,80.67
2022-11-12T16:47:22.732Z,81.04
2022-11-12T16:57:45.944Z,81.68
2022-11-12T17:08:10.519Z,81.35
2022-11-12T17:18:35.238Z,82.95
2022-11-12T17:29:06.584Z,82.74
2022-11-12T17:39:31.380Z,82.63
2022-11-12T17:49:54.628Z,82.96
2022-11-12T18:00:17.800Z,83.10
2022-11-12T18:10:43.821Z,83.53
2022-11-12T18:21:07.108Z,83.37
2022-11-12T18:31:30.313Z,84.01
2022-11-12T18:41:55.850Z,85.18
2022-11-12T18:52:19.489Z,85.41
2022-11-12T19:02:44.424Z,84.53
2022-11-12T19:13:08.000Z,84.14
2022-11-12T19:23:32.479Z,84.68
2022-11-12T19:33:56.368Z,84.26
2022-11-12T19:44:19.348Z,84.94
2022-11-12T19:54:42.721Z,84.80
2022-11-12T20:05:09.380Z,84.55
2022-11-12T20:15:33.661Z,85.03
2022-11-12T20:26:04.211Z,85.07
2022-11-12T20:36:28.511Z,84.64
2022-11-12T20:46:52.105Z,84.97
2022-11-12T20:57:15.719Z,85.25
2022-11-12T21:07:39.139Z,86.83
2022-11-12T21:18:01.939Z,86.26
2022-11-12T21:28:25.500Z,86.87
2022-11-12T21:38:49.488Z,87.90
2022-11-12T21:49:12.377Z,88.60
2022-11-12T21:59:34.880Z,88.65
2022-11-12T22:09:57.469Z,87.43
2022-11-12T22:20:20.467Z,87.31
2022-11-12T22:30:43.173Z,86.98
2022-11-12T22:41:10.882Z,87.07
2022-11-12T22:51:35.549Z,87.54
2022-11-12T23:01:58.137Z,87.78
2022-11-12T23:12:26.703Z,87.12
2022-11-12T23:22:50.552Z,86.64
2022-11-12T23:33:13.137Z,86.68
2022-11-12T23:43:35.419Z,87.26
2022-11-12T23:53:57.764Z,87.31
